Webcam Flughafen St.Gallen-Altenrhein

Live-Bilder und Zeitraffer LSZR / ACH.

 

Live aus Altenrhein
LIVE
LSZR 211420Z VRB01KT CAVOK 25/16 Q1012 NOSIG RMK K
Zeitraffer heute
2018-09-21 00:14:51
LSZR 202150Z AUTO VRB01KT CAVOK 15/13 Q1017
Zeitraffer gestern
2018-09-20 00:14:23
LSZR 192150Z AUTO VRB01KT CAVOK 15/13 Q1022
Zeitraffer vor 3 Tagen
2018-09-18 00:13:56
LSZR 172150Z AUTO VRB01KT CAVOK 16/13 Q1018